sensor_id;sensor_type;location;lat;lon;timestamp;P1;durP1;ratioP1;P2;durP2;ratioP2
5171;SDS011;2605;49.770;9.868;2022-07-29T00:00:19;17.40;;;16.40;;
5171;SDS011;2605;49.770;9.868;2022-07-29T00:02:45;18.57;;;17.10;;
5171;SDS011;2605;49.770;9.868;2022-07-29T00:05:11;14.87;;;13.93;;
5171;SDS011;2605;49.770;9.868;2022-07-29T00:07:38;19.70;;;18.50;;
5171;SDS011;2605;49.770;9.868;2022-07-29T00:10:04;18.10;;;16.80;;
5171;SDS011;2605;49.770;9.868;2022-07-29T00:12:30;14.63;;;13.43;;
5171;SDS011;2605;49.770;9.868;2022-07-29T00:14:55;16.90;;;15.80;;
5171;SDS011;2605;49.770;9.868;2022-07-29T00:17:22;15.57;;;14.40;;
5171;SDS011;2605;49.770;9.868;2022-07-29T00:19:48;18.10;;;16.80;;
5171;SDS011;2605;49.770;9.868;2022-07-29T00:22:14;17.00;;;16.10;;
5171;SDS011;2605;49.770;9.868;2022-07-29T00:24:39;19.20;;;18.20;;
5171;SDS011;2605;49.770;9.868;2022-07-29T00:27:05;10.53;;;9.83;;
5171;SDS011;2605;49.770;9.868;2022-07-29T00:29:31;18.53;;;17.27;;
5171;SDS011;2605;49.770;9.868;2022-07-29T00:31:56;20.60;;;18.73;;
5171;SDS011;2605;49.770;9.868;2022-07-29T00:34:22;15.53;;;14.73;;
5171;SDS011;2605;49.770;9.868;2022-07-29T00:37:06;18.70;;;17.70;;
5171;SDS011;2605;49.770;9.868;2022-07-29T00:39:31;16.73;;;15.50;;
5171;SDS011;2605;49.770;9.868;2022-07-29T00:41:57;18.27;;;16.77;;
5171;SDS011;2605;49.770;9.868;2022-07-29T00:44:22;18.73;;;17.63;;
5171;SDS011;2605;49.770;9.868;2022-07-29T00:46:48;19.20;;;17.90;;
5171;SDS011;2605;49.770;9.868;2022-07-29T00:49:13;20.10;;;19.10;;
5171;SDS011;2605;49.770;9.868;2022-07-29T00:51:39;19.57;;;18.50;;
5171;SDS011;2605;49.770;9.868;2022-07-29T00:54:04;15.33;;;14.33;;
5171;SDS011;2605;49.770;9.868;2022-07-29T00:56:31;10.37;;;6.60;;
5171;SDS011;2605;49.770;9.868;2022-07-29T00:58:57;7.97;;;7.20;;
5171;SDS011;2605;49.770;9.868;2022-07-29T01:01:23;15.30;;;14.40;;
5171;SDS011;2605;49.770;9.868;2022-07-29T01:03:49;15.80;;;14.90;;
5171;SDS011;2605;49.770;9.868;2022-07-29T01:06:18;14.13;;;13.37;;
5171;SDS011;2605;49.770;9.868;2022-07-29T01:08:44;14.83;;;13.83;;
5171;SDS011;2605;49.770;9.868;2022-07-29T01:11:12;14.93;;;14.07;;
5171;SDS011;2605;49.770;9.868;2022-07-29T01:13:38;15.13;;;14.13;;
5171;SDS011;2605;49.770;9.868;2022-07-29T01:16:11;15.67;;;14.77;;
5171;SDS011;2605;49.770;9.868;2022-07-29T01:18:42;15.50;;;14.60;;
5171;SDS011;2605;49.770;9.868;2022-07-29T01:30:08;21.90;;;20.50;;
5171;SDS011;2605;49.770;9.868;2022-07-29T01:32:35;19.43;;;18.43;;
5171;SDS011;2605;49.770;9.868;2022-07-29T01:35:03;19.23;;;17.97;;
5171;SDS011;2605;49.770;9.868;2022-07-29T01:37:36;7.37;;;4.73;;
5171;SDS011;2605;49.770;9.868;2022-07-29T01:40:14;5.90;;;5.40;;
5171;SDS011;2605;49.770;9.868;2022-07-29T01:42:55;20.17;;;18.97;;
5171;SDS011;2605;49.770;9.868;2022-07-29T01:48:15;12.13;;;11.17;;
5171;SDS011;2605;49.770;9.868;2022-07-29T01:50:50;22.07;;;20.57;;
5171;SDS011;2605;49.770;9.868;2022-07-29T01:53:25;21.07;;;19.70;;
5171;SDS011;2605;49.770;9.868;2022-07-29T01:56:12;20.00;;;18.90;;
5171;SDS011;2605;49.770;9.868;2022-07-29T01:58:40;24.00;;;22.50;;
5171;SDS011;2605;49.770;9.868;2022-07-29T02:01:08;23.13;;;21.50;;
5171;SDS011;2605;49.770;9.868;2022-07-29T02:03:36;16.97;;;15.93;;
5171;SDS011;2605;49.770;9.868;2022-07-29T02:06:04;16.23;;;14.60;;
5171;SDS011;2605;49.770;9.868;2022-07-29T02:08:31;19.60;;;18.00;;
5171;SDS011;2605;49.770;9.868;2022-07-29T02:10:59;15.93;;;14.57;;
5171;SDS011;2605;49.770;9.868;2022-07-29T02:13:25;14.80;;;13.40;;
5171;SDS011;2605;49.770;9.868;2022-07-29T02:15:53;17.33;;;16.07;;
5171;SDS011;2605;49.770;9.868;2022-07-29T02:18:20;21.30;;;19.00;;
5171;SDS011;2605;49.770;9.868;2022-07-29T02:20:49;18.90;;;17.60;;
5171;SDS011;2605;49.770;9.868;2022-07-29T02:23:19;16.93;;;15.53;;
5171;SDS011;2605;49.770;9.868;2022-07-29T02:25:49;19.50;;;18.00;;
5171;SDS011;2605;49.770;9.868;2022-07-29T02:28:17;21.13;;;19.43;;
5171;SDS011;2605;49.770;9.868;2022-07-29T02:30:45;17.00;;;14.37;;
5171;SDS011;2605;49.770;9.868;2022-07-29T02:33:12;21.80;;;19.63;;
5171;SDS011;2605;49.770;9.868;2022-07-29T02:35:40;18.43;;;17.17;;
5171;SDS011;2605;49.770;9.868;2022-07-29T02:38:09;17.13;;;15.87;;
5171;SDS011;2605;49.770;9.868;2022-07-29T02:40:55;18.20;;;16.70;;
5171;SDS011;2605;49.770;9.868;2022-07-29T02:43:22;6.47;;;4.77;;
5171;SDS011;2605;49.770;9.868;2022-07-29T02:45:49;6.07;;;5.30;;
5171;SDS011;2605;49.770;9.868;2022-07-29T02:48:17;18.07;;;16.67;;
5171;SDS011;2605;49.770;9.868;2022-07-29T02:50:48;17.30;;;16.30;;
5171;SDS011;2605;49.770;9.868;2022-07-29T02:53:18;15.30;;;13.97;;
5171;SDS011;2605;49.770;9.868;2022-07-29T02:55:54;17.13;;;15.67;;
5171;SDS011;2605;49.770;9.868;2022-07-29T02:58:25;12.33;;;11.63;;
5171;SDS011;2605;49.770;9.868;2022-07-29T03:00:57;13.73;;;12.87;;
5171;SDS011;2605;49.770;9.868;2022-07-29T03:03:32;9.50;;;4.83;;
5171;SDS011;2605;49.770;9.868;2022-07-29T03:06:01;5.63;;;4.97;;
5171;SDS011;2605;49.770;9.868;2022-07-29T03:08:28;5.30;;;4.80;;
5171;SDS011;2605;49.770;9.868;2022-07-29T03:10:55;10.90;;;9.73;;
5171;SDS011;2605;49.770;9.868;2022-07-29T03:13:21;6.50;;;4.73;;
5171;SDS011;2605;49.770;9.868;2022-07-29T03:15:48;8.97;;;5.20;;
5171;SDS011;2605;49.770;9.868;2022-07-29T03:18:14;6.83;;;5.47;;
5171;SDS011;2605;49.770;9.868;2022-07-29T03:20:40;6.40;;;4.60;;
5171;SDS011;2605;49.770;9.868;2022-07-29T03:23:06;6.03;;;5.43;;
5171;SDS011;2605;49.770;9.868;2022-07-29T03:25:33;10.33;;;9.40;;
5171;SDS011;2605;49.770;9.868;2022-07-29T03:27:59;6.53;;;5.40;;
5171;SDS011;2605;49.770;9.868;2022-07-29T03:30:25;13.07;;;7.23;;
5171;SDS011;2605;49.770;9.868;2022-07-29T03:32:51;8.13;;;5.10;;
5171;SDS011;2605;49.770;9.868;2022-07-29T03:35:17;10.40;;;5.40;;
5171;SDS011;2605;49.770;9.868;2022-07-29T03:37:44;7.53;;;5.53;;
5171;SDS011;2605;49.770;9.868;2022-07-29T03:40:09;9.20;;;5.70;;
5171;SDS011;2605;49.770;9.868;2022-07-29T03:42:39;8.40;;;5.70;;
5171;SDS011;2605;49.770;9.868;2022-07-29T03:45:07;10.57;;;5.47;;
5171;SDS011;2605;49.770;9.868;2022-07-29T03:47:36;5.23;;;4.73;;
5171;SDS011;2605;49.770;9.868;2022-07-29T03:50:07;8.87;;;4.67;;
5171;SDS011;2605;49.770;9.868;2022-07-29T03:52:35;5.90;;;4.83;;
5171;SDS011;2605;49.770;9.868;2022-07-29T03:55:01;5.50;;;4.97;;
5171;SDS011;2605;49.770;9.868;2022-07-29T03:57:27;4.70;;;4.30;;
5171;SDS011;2605;49.770;9.868;2022-07-29T03:59:55;6.60;;;4.70;;
5171;SDS011;2605;49.770;9.868;2022-07-29T04:02:21;9.93;;;5.40;;
5171;SDS011;2605;49.770;9.868;2022-07-29T04:04:48;6.80;;;5.20;;
5171;SDS011;2605;49.770;9.868;2022-07-29T04:07:14;13.27;;;5.30;;
5171;SDS011;2605;49.770;9.868;2022-07-29T04:09:40;5.83;;;5.13;;
5171;SDS011;2605;49.770;9.868;2022-07-29T04:12:05;6.17;;;4.63;;
5171;SDS011;2605;49.770;9.868;2022-07-29T04:14:32;7.20;;;4.70;;
5171;SDS011;2605;49.770;9.868;2022-07-29T04:16:58;5.33;;;4.27;;
5171;SDS011;2605;49.770;9.868;2022-07-29T04:19:24;6.67;;;5.90;;
5171;SDS011;2605;49.770;9.868;2022-07-29T04:21:50;7.77;;;7.10;;
5171;SDS011;2605;49.770;9.868;2022-07-29T04:24:16;8.60;;;8.00;;
5171;SDS011;2605;49.770;9.868;2022-07-29T04:26:41;5.70;;;5.20;;
5171;SDS011;2605;49.770;9.868;2022-07-29T04:29:07;10.60;;;7.33;;
5171;SDS011;2605;49.770;9.868;2022-07-29T04:31:33;7.90;;;7.30;;
5171;SDS011;2605;49.770;9.868;2022-07-29T04:33:58;8.27;;;7.47;;
5171;SDS011;2605;49.770;9.868;2022-07-29T04:36:24;5.83;;;5.33;;
5171;SDS011;2605;49.770;9.868;2022-07-29T04:38:49;6.73;;;4.80;;
5171;SDS011;2605;49.770;9.868;2022-07-29T04:41:15;7.23;;;4.77;;
5171;SDS011;2605;49.770;9.868;2022-07-29T04:43:40;5.23;;;4.83;;
5171;SDS011;2605;49.770;9.868;2022-07-29T04:46:06;7.50;;;5.83;;
5171;SDS011;2605;49.770;9.868;2022-07-29T04:48:32;7.70;;;4.33;;
5171;SDS011;2605;49.770;9.868;2022-07-29T04:50:57;5.13;;;4.53;;
5171;SDS011;2605;49.770;9.868;2022-07-29T04:53:23;9.63;;;6.30;;
5171;SDS011;2605;49.770;9.868;2022-07-29T04:55:49;9.63;;;6.70;;
5171;SDS011;2605;49.770;9.868;2022-07-29T04:58:15;8.03;;;7.23;;
5171;SDS011;2605;49.770;9.868;2022-07-29T05:00:40;8.70;;;7.90;;
5171;SDS011;2605;49.770;9.868;2022-07-29T05:03:06;8.13;;;7.43;;
5171;SDS011;2605;49.770;9.868;2022-07-29T05:05:31;8.90;;;8.30;;
5171;SDS011;2605;49.770;9.868;2022-07-29T05:07:57;11.23;;;10.27;;
5171;SDS011;2605;49.770;9.868;2022-07-29T05:10:23;11.97;;;10.40;;
5171;SDS011;2605;49.770;9.868;2022-07-29T05:12:49;9.43;;;8.00;;
5171;SDS011;2605;49.770;9.868;2022-07-29T05:15:14;9.50;;;8.80;;
5171;SDS011;2605;49.770;9.868;2022-07-29T05:17:40;9.50;;;8.90;;
5171;SDS011;2605;49.770;9.868;2022-07-29T05:20:05;10.53;;;9.63;;
5171;SDS011;2605;49.770;9.868;2022-07-29T05:22:32;14.70;;;9.67;;
5171;SDS011;2605;49.770;9.868;2022-07-29T05:24:57;10.40;;;9.70;;
5171;SDS011;2605;49.770;9.868;2022-07-29T05:27:23;9.53;;;8.80;;
5171;SDS011;2605;49.770;9.868;2022-07-29T05:29:48;8.67;;;7.87;;
5171;SDS011;2605;49.770;9.868;2022-07-29T05:32:14;10.10;;;9.40;;
5171;SDS011;2605;49.770;9.868;2022-07-29T05:34:40;9.97;;;9.17;;
5171;SDS011;2605;49.770;9.868;2022-07-29T05:37:05;8.97;;;8.43;;
5171;SDS011;2605;49.770;9.868;2022-07-29T05:39:31;8.70;;;8.00;;
5171;SDS011;2605;49.770;9.868;2022-07-29T05:41:57;8.60;;;8.00;;
5171;SDS011;2605;49.770;9.868;2022-07-29T05:44:22;9.70;;;8.90;;
5171;SDS011;2605;49.770;9.868;2022-07-29T05:46:48;10.33;;;9.33;;
5171;SDS011;2605;49.770;9.868;2022-07-29T05:49:13;10.20;;;9.60;;
5171;SDS011;2605;49.770;9.868;2022-07-29T05:51:39;9.37;;;8.73;;
5171;SDS011;2605;49.770;9.868;2022-07-29T05:54:05;10.77;;;9.93;;
5171;SDS011;2605;49.770;9.868;2022-07-29T05:56:30;9.47;;;8.27;;
5171;SDS011;2605;49.770;9.868;2022-07-29T05:58:56;10.47;;;9.83;;
5171;SDS011;2605;49.770;9.868;2022-07-29T06:01:21;8.50;;;7.60;;
5171;SDS011;2605;49.770;9.868;2022-07-29T06:03:47;8.07;;;7.47;;
5171;SDS011;2605;49.770;9.868;2022-07-29T06:06:12;9.50;;;8.80;;
5171;SDS011;2605;49.770;9.868;2022-07-29T06:08:38;9.83;;;9.13;;
5171;SDS011;2605;49.770;9.868;2022-07-29T06:11:05;8.10;;;7.40;;
5171;SDS011;2605;49.770;9.868;2022-07-29T06:13:31;8.83;;;7.27;;
5171;SDS011;2605;49.770;9.868;2022-07-29T06:15:56;8.73;;;8.13;;
5171;SDS011;2605;49.770;9.868;2022-07-29T06:18:22;8.50;;;7.80;;
5171;SDS011;2605;49.770;9.868;2022-07-29T06:20:52;10.03;;;8.80;;
5171;SDS011;2605;49.770;9.868;2022-07-29T06:23:18;10.13;;;9.57;;
5171;SDS011;2605;49.770;9.868;2022-07-29T06:25:44;11.10;;;9.87;;
5171;SDS011;2605;49.770;9.868;2022-07-29T06:28:10;9.13;;;8.33;;
5171;SDS011;2605;49.770;9.868;2022-07-29T06:30:36;8.33;;;7.77;;
5171;SDS011;2605;49.770;9.868;2022-07-29T06:33:02;9.30;;;8.50;;
5171;SDS011;2605;49.770;9.868;2022-07-29T06:35:28;9.87;;;8.97;;
5171;SDS011;2605;49.770;9.868;2022-07-29T06:37:53;10.23;;;9.50;;
5171;SDS011;2605;49.770;9.868;2022-07-29T06:40:19;10.73;;;9.83;;
5171;SDS011;2605;49.770;9.868;2022-07-29T06:43:03;5.80;;;5.43;;
5171;SDS011;2605;49.770;9.868;2022-07-29T06:45:29;5.30;;;4.30;;
5171;SDS011;2605;49.770;9.868;2022-07-29T06:47:54;6.20;;;4.00;;
5171;SDS011;2605;49.770;9.868;2022-07-29T06:50:20;13.57;;;12.33;;
5171;SDS011;2605;49.770;9.868;2022-07-29T06:52:46;14.60;;;13.70;;
5171;SDS011;2605;49.770;9.868;2022-07-29T06:55:12;4.63;;;3.40;;
5171;SDS011;2605;49.770;9.868;2022-07-29T06:57:39;6.43;;;4.43;;
5171;SDS011;2605;49.770;9.868;2022-07-29T07:00:04;18.20;;;12.27;;
5171;SDS011;2605;49.770;9.868;2022-07-29T07:02:31;12.93;;;12.03;;
5171;SDS011;2605;49.770;9.868;2022-07-29T07:04:56;4.07;;;3.77;;
5171;SDS011;2605;49.770;9.868;2022-07-29T07:07:23;4.57;;;4.17;;
5171;SDS011;2605;49.770;9.868;2022-07-29T07:09:49;7.00;;;3.63;;
5171;SDS011;2605;49.770;9.868;2022-07-29T07:12:14;4.13;;;3.83;;
5171;SDS011;2605;49.770;9.868;2022-07-29T07:14:40;5.73;;;4.63;;
5171;SDS011;2605;49.770;9.868;2022-07-29T07:17:05;3.93;;;3.53;;
5171;SDS011;2605;49.770;9.868;2022-07-29T07:19:31;5.07;;;3.80;;
5171;SDS011;2605;49.770;9.868;2022-07-29T07:21:57;7.20;;;6.80;;
5171;SDS011;2605;49.770;9.868;2022-07-29T07:24:22;6.03;;;5.50;;
5171;SDS011;2605;49.770;9.868;2022-07-29T07:26:48;14.23;;;13.33;;
5171;SDS011;2605;49.770;9.868;2022-07-29T07:29:13;10.53;;;9.83;;
5171;SDS011;2605;49.770;9.868;2022-07-29T07:31:39;14.77;;;13.87;;
5171;SDS011;2605;49.770;9.868;2022-07-29T07:34:05;15.20;;;14.40;;
5171;SDS011;2605;49.770;9.868;2022-07-29T07:36:30;17.60;;;16.70;;
5171;SDS011;2605;49.770;9.868;2022-07-29T07:38:56;15.90;;;15.00;;
5171;SDS011;2605;49.770;9.868;2022-07-29T07:41:21;17.20;;;16.20;;
5171;SDS011;2605;49.770;9.868;2022-07-29T07:43:47;16.00;;;14.93;;
5171;SDS011;2605;49.770;9.868;2022-07-29T07:46:13;15.13;;;14.23;;
5171;SDS011;2605;49.770;9.868;2022-07-29T07:48:39;16.87;;;16.17;;
5171;SDS011;2605;49.770;9.868;2022-07-29T07:51:05;16.23;;;15.53;;
5171;SDS011;2605;49.770;9.868;2022-07-29T07:53:30;7.17;;;3.93;;
5171;SDS011;2605;49.770;9.868;2022-07-29T07:55:56;6.37;;;3.60;;
5171;SDS011;2605;49.770;9.868;2022-07-29T07:58:21;4.60;;;4.20;;
5171;SDS011;2605;49.770;9.868;2022-07-29T08:00:47;8.50;;;4.60;;
5171;SDS011;2605;49.770;9.868;2022-07-29T08:03:12;5.00;;;4.40;;
5171;SDS011;2605;49.770;9.868;2022-07-29T08:05:38;4.33;;;3.97;;
5171;SDS011;2605;49.770;9.868;2022-07-29T08:08:04;7.70;;;4.40;;
5171;SDS011;2605;49.770;9.868;2022-07-29T08:10:30;5.03;;;3.77;;
5171;SDS011;2605;49.770;9.868;2022-07-29T08:13:14;7.63;;;4.30;;
5171;SDS011;2605;49.770;9.868;2022-07-29T08:15:40;4.60;;;3.90;;
5171;SDS011;2605;49.770;9.868;2022-07-29T08:18:07;3.87;;;3.57;;
5171;SDS011;2605;49.770;9.868;2022-07-29T08:20:33;6.63;;;4.23;;
5171;SDS011;2605;49.770;9.868;2022-07-29T08:23:00;4.10;;;3.70;;
5171;SDS011;2605;49.770;9.868;2022-07-29T08:25:26;4.03;;;3.60;;
5171;SDS011;2605;49.770;9.868;2022-07-29T08:27:52;5.00;;;3.60;;
5171;SDS011;2605;49.770;9.868;2022-07-29T08:30:17;7.20;;;4.33;;
5171;SDS011;2605;49.770;9.868;2022-07-29T08:32:43;4.13;;;3.87;;
5171;SDS011;2605;49.770;9.868;2022-07-29T08:35:08;6.57;;;4.47;;
5171;SDS011;2605;49.770;9.868;2022-07-29T08:37:34;7.90;;;5.00;;
5171;SDS011;2605;49.770;9.868;2022-07-29T08:39:59;4.20;;;3.90;;
5171;SDS011;2605;49.770;9.868;2022-07-29T08:42:25;4.93;;;4.20;;
5171;SDS011;2605;49.770;9.868;2022-07-29T08:44:51;4.20;;;3.50;;
5171;SDS011;2605;49.770;9.868;2022-07-29T08:47:18;4.00;;;3.70;;
5171;SDS011;2605;49.770;9.868;2022-07-29T08:49:44;4.57;;;4.07;;
5171;SDS011;2605;49.770;9.868;2022-07-29T08:52:11;6.37;;;5.60;;
5171;SDS011;2605;49.770;9.868;2022-07-29T08:54:38;17.13;;;15.73;;
5171;SDS011;2605;49.770;9.868;2022-07-29T08:57:07;17.90;;;16.87;;
5171;SDS011;2605;49.770;9.868;2022-07-29T08:59:34;17.83;;;16.83;;
5171;SDS011;2605;49.770;9.868;2022-07-29T09:02:00;17.80;;;16.90;;
5171;SDS011;2605;49.770;9.868;2022-07-29T09:04:32;18.60;;;17.67;;
5171;SDS011;2605;49.770;9.868;2022-07-29T09:07:00;18.40;;;17.60;;
5171;SDS011;2605;49.770;9.868;2022-07-29T09:09:30;18.33;;;17.47;;
5171;SDS011;2605;49.770;9.868;2022-07-29T09:11:58;17.93;;;17.03;;
5171;SDS011;2605;49.770;9.868;2022-07-29T09:14:24;19.20;;;17.90;;
5171;SDS011;2605;49.770;9.868;2022-07-29T09:19:23;18.80;;;17.50;;
5171;SDS011;2605;49.770;9.868;2022-07-29T09:21:53;18.43;;;17.30;;
5171;SDS011;2605;49.770;9.868;2022-07-29T09:24:22;17.30;;;16.47;;
5171;SDS011;2605;49.770;9.868;2022-07-29T09:26:48;18.10;;;17.10;;
5171;SDS011;2605;49.770;9.868;2022-07-29T09:29:20;17.97;;;17.17;;
5171;SDS011;2605;49.770;9.868;2022-07-29T09:31:48;18.43;;;17.23;;
5171;SDS011;2605;49.770;9.868;2022-07-29T09:34:16;18.00;;;17.00;;
5171;SDS011;2605;49.770;9.868;2022-07-29T09:36:46;18.50;;;17.50;;
5171;SDS011;2605;49.770;9.868;2022-07-29T09:39:13;18.03;;;17.07;;
5171;SDS011;2605;49.770;9.868;2022-07-29T09:41:59;4.37;;;4.07;;
5171;SDS011;2605;49.770;9.868;2022-07-29T09:44:27;7.70;;;4.30;;
5171;SDS011;2605;49.770;9.868;2022-07-29T09:47:13;5.60;;;3.87;;
5171;SDS011;2605;49.770;9.868;2022-07-29T09:49:58;6.10;;;4.10;;
5171;SDS011;2605;49.770;9.868;2022-07-29T09:52:27;9.70;;;4.73;;
5171;SDS011;2605;49.770;9.868;2022-07-29T09:55:04;5.00;;;4.60;;
5171;SDS011;2605;49.770;9.868;2022-07-29T09:57:33;6.50;;;4.20;;
5171;SDS011;2605;49.770;9.868;2022-07-29T10:00:20;5.60;;;4.60;;
5171;SDS011;2605;49.770;9.868;2022-07-29T10:02:47;4.97;;;4.43;;
5171;SDS011;2605;49.770;9.868;2022-07-29T10:05:18;7.43;;;4.63;;
5171;SDS011;2605;49.770;9.868;2022-07-29T10:07:56;4.93;;;4.43;;
5171;SDS011;2605;49.770;9.868;2022-07-29T10:10:25;4.70;;;4.07;;
5171;SDS011;2605;49.770;9.868;2022-07-29T10:12:59;6.13;;;4.43;;
5171;SDS011;2605;49.770;9.868;2022-07-29T10:15:27;9.43;;;4.80;;
5171;SDS011;2605;49.770;9.868;2022-07-29T10:17:55;9.53;;;4.50;;
5171;SDS011;2605;49.770;9.868;2022-07-29T10:20:21;10.53;;;5.10;;
5171;SDS011;2605;49.770;9.868;2022-07-29T10:22:48;6.97;;;4.93;;
5171;SDS011;2605;49.770;9.868;2022-07-29T10:25:14;4.73;;;4.30;;
5171;SDS011;2605;49.770;9.868;2022-07-29T10:27:40;4.67;;;4.37;;
5171;SDS011;2605;49.770;9.868;2022-07-29T10:30:07;7.93;;;5.30;;
5171;SDS011;2605;49.770;9.868;2022-07-29T10:32:43;4.60;;;4.20;;
5171;SDS011;2605;49.770;9.868;2022-07-29T10:38:34;7.40;;;4.70;;
5171;SDS011;2605;49.770;9.868;2022-07-29T10:46:38;5.30;;;4.63;;
5171;SDS011;2605;49.770;9.868;2022-07-29T10:54:15;4.67;;;4.27;;
5171;SDS011;2605;49.770;9.868;2022-07-29T10:56:44;4.43;;;4.03;;
5171;SDS011;2605;49.770;9.868;2022-07-29T11:01:44;12.50;;;4.60;;
5171;SDS011;2605;49.770;9.868;2022-07-29T11:04:11;3.73;;;3.43;;
5171;SDS011;2605;49.770;9.868;2022-07-29T11:09:27;5.67;;;5.03;;
5171;SDS011;2605;49.770;9.868;2022-07-29T11:11:55;7.17;;;4.60;;
5171;SDS011;2605;49.770;9.868;2022-07-29T11:14:54;6.77;;;4.50;;
5171;SDS011;2605;49.770;9.868;2022-07-29T11:17:21;4.63;;;4.17;;
5171;SDS011;2605;49.770;9.868;2022-07-29T11:19:46;8.03;;;4.70;;
5171;SDS011;2605;49.770;9.868;2022-07-29T11:22:14;4.27;;;3.97;;
5171;SDS011;2605;49.770;9.868;2022-07-29T11:25:12;5.20;;;4.20;;
5171;SDS011;2605;49.770;9.868;2022-07-29T11:27:39;4.73;;;4.23;;
5171;SDS011;2605;49.770;9.868;2022-07-29T11:30:05;12.23;;;4.93;;
5171;SDS011;2605;49.770;9.868;2022-07-29T11:32:38;5.13;;;4.57;;
5171;SDS011;2605;49.770;9.868;2022-07-29T11:35:18;5.07;;;4.67;;
5171;SDS011;2605;49.770;9.868;2022-07-29T11:37:47;6.13;;;4.57;;
5171;SDS011;2605;49.770;9.868;2022-07-29T11:43:47;6.63;;;3.97;;
5171;SDS011;2605;49.770;9.868;2022-07-29T11:49:11;4.47;;;4.07;;
5171;SDS011;2605;49.770;9.868;2022-07-29T11:51:38;13.53;;;12.73;;
5171;SDS011;2605;49.770;9.868;2022-07-29T11:54:04;8.63;;;8.20;;
5171;SDS011;2605;49.770;9.868;2022-07-29T11:56:33;8.03;;;7.40;;
5171;SDS011;2605;49.770;9.868;2022-07-29T11:59:03;4.97;;;4.67;;
5171;SDS011;2605;49.770;9.868;2022-07-29T12:01:30;29.60;;;27.90;;
5171;SDS011;2605;49.770;9.868;2022-07-29T12:04:03;4.90;;;4.50;;
5171;SDS011;2605;49.770;9.868;2022-07-29T12:06:30;4.40;;;4.00;;
5171;SDS011;2605;49.770;9.868;2022-07-29T12:08:56;6.80;;;6.40;;
5171;SDS011;2605;49.770;9.868;2022-07-29T12:11:21;4.50;;;4.20;;
5171;SDS011;2605;49.770;9.868;2022-07-29T12:13:48;4.73;;;4.20;;
5171;SDS011;2605;49.770;9.868;2022-07-29T12:16:14;4.73;;;4.33;;
5171;SDS011;2605;49.770;9.868;2022-07-29T12:18:39;7.80;;;5.50;;
5171;SDS011;2605;49.770;9.868;2022-07-29T12:21:05;8.33;;;4.43;;
5171;SDS011;2605;49.770;9.868;2022-07-29T12:23:31;5.37;;;4.50;;
5171;SDS011;2605;49.770;9.868;2022-07-29T12:25:57;13.07;;;12.27;;
5171;SDS011;2605;49.770;9.868;2022-07-29T12:28:23;13.77;;;12.97;;
5171;SDS011;2605;49.770;9.868;2022-07-29T12:30:49;13.67;;;12.40;;
5171;SDS011;2605;49.770;9.868;2022-07-29T12:33:25;11.77;;;11.10;;
5171;SDS011;2605;49.770;9.868;2022-07-29T12:35:53;11.90;;;11.00;;
5171;SDS011;2605;49.770;9.868;2022-07-29T12:38:20;11.57;;;10.80;;
5171;SDS011;2605;49.770;9.868;2022-07-29T12:40:47;11.20;;;10.10;;
5171;SDS011;2605;49.770;9.868;2022-07-29T12:43:15;12.70;;;12.00;;
5171;SDS011;2605;49.770;9.868;2022-07-29T12:45:43;12.13;;;11.53;;
5171;SDS011;2605;49.770;9.868;2022-07-29T12:48:10;13.77;;;12.87;;
5171;SDS011;2605;49.770;9.868;2022-07-29T12:50:36;14.17;;;13.57;;
5171;SDS011;2605;49.770;9.868;2022-07-29T12:53:17;13.70;;;13.10;;
5171;SDS011;2605;49.770;9.868;2022-07-29T12:55:45;7.93;;;7.53;;
5171;SDS011;2605;49.770;9.868;2022-07-29T13:01:00;5.03;;;3.77;;
5171;SDS011;2605;49.770;9.868;2022-07-29T13:03:41;3.83;;;3.53;;
5171;SDS011;2605;49.770;9.868;2022-07-29T13:09:22;9.23;;;3.93;;
5171;SDS011;2605;49.770;9.868;2022-07-29T13:11:51;18.83;;;17.67;;
5171;SDS011;2605;49.770;9.868;2022-07-29T13:19:36;5.30;;;4.73;;
5171;SDS011;2605;49.770;9.868;2022-07-29T13:22:14;18.27;;;16.73;;
5171;SDS011;2605;49.770;9.868;2022-07-29T13:24:52;11.83;;;10.93;;
5171;SDS011;2605;49.770;9.868;2022-07-29T13:27:20;18.63;;;17.50;;
5171;SDS011;2605;49.770;9.868;2022-07-29T13:29:47;17.10;;;16.30;;
5171;SDS011;2605;49.770;9.868;2022-07-29T13:32:13;19.00;;;17.80;;
5171;SDS011;2605;49.770;9.868;2022-07-29T13:34:39;5.37;;;4.97;;
5171;SDS011;2605;49.770;9.868;2022-07-29T13:37:05;14.00;;;13.20;;
5171;SDS011;2605;49.770;9.868;2022-07-29T13:39:31;6.03;;;4.40;;
5171;SDS011;2605;49.770;9.868;2022-07-29T13:41:56;21.10;;;19.90;;
5171;SDS011;2605;49.770;9.868;2022-07-29T13:44:22;22.13;;;21.13;;
5171;SDS011;2605;49.770;9.868;2022-07-29T13:46:47;23.03;;;21.63;;
5171;SDS011;2605;49.770;9.868;2022-07-29T13:49:13;21.50;;;19.80;;
5171;SDS011;2605;49.770;9.868;2022-07-29T13:51:38;21.77;;;20.67;;
5171;SDS011;2605;49.770;9.868;2022-07-29T13:54:04;7.00;;;6.40;;
5171;SDS011;2605;49.770;9.868;2022-07-29T13:56:30;6.67;;;6.07;;
5171;SDS011;2605;49.770;9.868;2022-07-29T13:58:55;6.60;;;6.10;;
5171;SDS011;2605;49.770;9.868;2022-07-29T14:01:22;6.77;;;6.20;;
5171;SDS011;2605;49.770;9.868;2022-07-29T14:03:48;11.43;;;10.73;;
5171;SDS011;2605;49.770;9.868;2022-07-29T14:06:13;22.03;;;20.90;;
5171;SDS011;2605;49.770;9.868;2022-07-29T14:08:39;7.37;;;6.77;;
5171;SDS011;2605;49.770;9.868;2022-07-29T14:11:05;7.10;;;6.47;;
5171;SDS011;2605;49.770;9.868;2022-07-29T14:13:30;22.73;;;21.53;;
5171;SDS011;2605;49.770;9.868;2022-07-29T14:15:56;21.70;;;20.40;;
5171;SDS011;2605;49.770;9.868;2022-07-29T14:18:22;22.13;;;20.77;;
5171;SDS011;2605;49.770;9.868;2022-07-29T14:20:47;8.20;;;7.40;;
5171;SDS011;2605;49.770;9.868;2022-07-29T14:23:13;6.77;;;6.27;;
5171;SDS011;2605;49.770;9.868;2022-07-29T14:25:38;24.03;;;22.37;;
5171;SDS011;2605;49.770;9.868;2022-07-29T14:28:04;7.50;;;6.07;;
5171;SDS011;2605;49.770;9.868;2022-07-29T14:30:29;6.60;;;6.10;;
5171;SDS011;2605;49.770;9.868;2022-07-29T14:32:55;6.93;;;6.23;;
5171;SDS011;2605;49.770;9.868;2022-07-29T14:35:20;6.80;;;6.30;;
5171;SDS011;2605;49.770;9.868;2022-07-29T14:37:46;6.47;;;5.57;;
5171;SDS011;2605;49.770;9.868;2022-07-29T14:40:11;6.10;;;5.70;;
5171;SDS011;2605;49.770;9.868;2022-07-29T14:42:37;29.67;;;7.17;;
5171;SDS011;2605;49.770;9.868;2022-07-29T14:45:04;6.40;;;5.80;;
5171;SDS011;2605;49.770;9.868;2022-07-29T14:47:31;6.60;;;6.00;;
5171;SDS011;2605;49.770;9.868;2022-07-29T14:49:57;6.83;;;6.33;;
5171;SDS011;2605;49.770;9.868;2022-07-29T14:52:22;9.80;;;7.43;;
5171;SDS011;2605;49.770;9.868;2022-07-29T14:54:48;8.03;;;7.33;;
5171;SDS011;2605;49.770;9.868;2022-07-29T14:57:13;7.37;;;6.77;;
5171;SDS011;2605;49.770;9.868;2022-07-29T14:59:39;6.40;;;5.70;;
5171;SDS011;2605;49.770;9.868;2022-07-29T15:02:04;7.13;;;6.53;;
5171;SDS011;2605;49.770;9.868;2022-07-29T15:04:30;19.80;;;18.83;;
5171;SDS011;2605;49.770;9.868;2022-07-29T15:06:55;20.33;;;19.33;;
5171;SDS011;2605;49.770;9.868;2022-07-29T15:09:21;6.50;;;6.07;;
5171;SDS011;2605;49.770;9.868;2022-07-29T15:11:46;5.57;;;5.07;;
5171;SDS011;2605;49.770;9.868;2022-07-29T15:14:12;5.53;;;5.13;;
5171;SDS011;2605;49.770;9.868;2022-07-29T15:16:38;25.43;;;23.90;;
5171;SDS011;2605;49.770;9.868;2022-07-29T15:19:04;27.80;;;26.30;;
5171;SDS011;2605;49.770;9.868;2022-07-29T15:21:30;8.17;;;7.23;;
5171;SDS011;2605;49.770;9.868;2022-07-29T15:23:55;7.20;;;6.80;;
5171;SDS011;2605;49.770;9.868;2022-07-29T15:26:21;11.70;;;10.50;;
5171;SDS011;2605;49.770;9.868;2022-07-29T15:28:47;12.70;;;12.00;;
5171;SDS011;2605;49.770;9.868;2022-07-29T15:31:12;16.10;;;15.00;;
5171;SDS011;2605;49.770;9.868;2022-07-29T15:33:39;14.47;;;13.50;;
5171;SDS011;2605;49.770;9.868;2022-07-29T15:36:04;11.53;;;10.43;;
5171;SDS011;2605;49.770;9.868;2022-07-29T15:38:30;12.50;;;11.30;;
5171;SDS011;2605;49.770;9.868;2022-07-29T15:40:56;12.47;;;11.37;;
5171;SDS011;2605;49.770;9.868;2022-07-29T15:43:22;12.87;;;11.87;;
5171;SDS011;2605;49.770;9.868;2022-07-29T15:45:48;13.10;;;12.20;;
5171;SDS011;2605;49.770;9.868;2022-07-29T15:48:32;10.37;;;9.67;;
5171;SDS011;2605;49.770;9.868;2022-07-29T15:50:58;7.53;;;6.83;;
5171;SDS011;2605;49.770;9.868;2022-07-29T15:53:24;8.20;;;7.60;;
5171;SDS011;2605;49.770;9.868;2022-07-29T15:55:50;7.07;;;6.50;;